createdAt,value
2023-05-17T00:00:44.749Z,4.10
2023-05-17T00:03:41.608Z,4.62
2023-05-17T00:06:38.456Z,4.46
2023-05-17T00:09:36.036Z,4.45
2023-05-17T00:12:32.875Z,4.69
2023-05-17T00:15:30.192Z,4.71
2023-05-17T00:18:27.223Z,4.84
2023-05-17T00:21:24.150Z,4.51
2023-05-17T00:24:20.993Z,4.36
2023-05-17T00:27:17.869Z,4.79
2023-05-17T00:30:15.155Z,4.19
2023-05-17T00:33:12.086Z,4.14
2023-05-17T00:36:09.185Z,4.26
2023-05-17T00:39:06.055Z,4.03
2023-05-17T00:42:04.875Z,4.07
2023-05-17T00:45:01.768Z,4.23
2023-05-17T00:47:58.728Z,4.22
2023-05-17T00:50:56.831Z,4.43
2023-05-17T00:53:53.713Z,3.91
2023-05-17T00:56:50.674Z,3.52
2023-05-17T00:59:47.944Z,4.41
2023-05-17T01:02:44.963Z,4.06
2023-05-17T01:05:42.260Z,3.86
2023-05-17T01:08:39.113Z,3.74
2023-05-17T01:12:07.366Z,4.04
2023-05-17T01:15:27.954Z,4.16
2023-05-17T01:18:41.907Z,4.12
2023-05-17T01:22:33.245Z,3.85
2023-05-17T01:25:59.701Z,3.88
2023-05-17T01:28:59.952Z,3.43
2023-05-17T01:31:59.538Z,3.30
2023-05-17T01:34:56.356Z,3.61
2023-05-17T01:37:54.217Z,3.81
2023-05-17T01:41:27.586Z,4.09
2023-05-17T01:44:40.808Z,3.41
2023-05-17T01:48:05.826Z,3.39
2023-05-17T01:51:03.913Z,3.65
2023-05-17T01:54:09.657Z,3.83
2023-05-17T01:57:09.833Z,3.94
2023-05-17T02:00:09.502Z,3.43
2023-05-17T02:03:06.525Z,3.40
2023-05-17T02:06:03.442Z,3.55
2023-05-17T02:09:02.694Z,3.40
2023-05-17T02:11:59.716Z,3.51
2023-05-17T02:14:56.590Z,3.56
2023-05-17T02:17:53.622Z,3.36
2023-05-17T02:20:50.603Z,3.50
2023-05-17T02:23:47.539Z,3.40
2023-05-17T02:26:45.790Z,3.45
2023-05-17T02:29:42.772Z,3.29
2023-05-17T02:32:39.829Z,3.42
2023-05-17T02:35:43.637Z,3.39
2023-05-17T02:38:40.606Z,3.29
2023-05-17T02:41:37.453Z,3.16
2023-05-17T02:44:34.378Z,3.33
2023-05-17T02:47:31.422Z,3.67
2023-05-17T02:50:28.372Z,3.92
2023-05-17T02:53:25.493Z,3.78
2023-05-17T02:56:22.523Z,3.40
2023-05-17T02:59:19.395Z,3.39
2023-05-17T03:02:16.383Z,3.51
2023-05-17T03:05:13.419Z,3.80
2023-05-17T03:08:10.348Z,3.57
2023-05-17T03:11:07.433Z,3.80
2023-05-17T03:14:04.323Z,3.68
2023-05-17T03:17:01.175Z,3.75
2023-05-17T03:19:58.046Z,3.55
2023-05-17T03:22:54.935Z,4.13
2023-05-17T03:25:51.862Z,3.63
2023-05-17T03:28:48.796Z,3.68
2023-05-17T03:31:46.019Z,3.79
2023-05-17T03:34:42.935Z,3.93
2023-05-17T03:37:39.795Z,4.04
2023-05-17T03:40:36.657Z,4.06
2023-05-17T03:43:33.655Z,3.56
2023-05-17T03:46:30.534Z,3.81
2023-05-17T03:49:27.408Z,3.90
2023-05-17T03:52:24.252Z,4.26
2023-05-17T03:55:21.208Z,4.20
2023-05-17T03:58:18.460Z,4.08
2023-05-17T04:01:15.303Z,4.13
2023-05-17T04:04:12.335Z,4.10
2023-05-17T04:07:09.574Z,4.21
2023-05-17T04:10:07.901Z,3.78
2023-05-17T04:13:04.808Z,4.51
2023-05-17T04:16:01.736Z,3.86
2023-05-17T04:19:01.060Z,4.13
2023-05-17T04:21:58.056Z,4.34
2023-05-17T04:24:54.943Z,4.37
2023-05-17T04:27:52.093Z,4.54
2023-05-17T04:30:48.971Z,4.30
2023-05-17T04:33:45.921Z,4.34
2023-05-17T04:36:43.161Z,4.36
2023-05-17T04:39:40.142Z,4.61
2023-05-17T04:42:37.034Z,5.14
2023-05-17T04:45:34.064Z,4.87
2023-05-17T04:48:32.793Z,4.92
2023-05-17T04:51:30.741Z,5.11
2023-05-17T04:54:27.658Z,5.06
2023-05-17T04:57:24.562Z,4.85
2023-05-17T05:00:23.788Z,5.53
2023-05-17T05:03:22.284Z,5.33
2023-05-17T05:06:19.268Z,5.81
2023-05-17T05:09:16.199Z,5.98
2023-05-17T05:12:13.203Z,5.87
2023-05-17T05:15:11.091Z,5.42
2023-05-17T05:18:08.056Z,6.10
2023-05-17T05:21:05.122Z,6.49
2023-05-17T05:24:01.979Z,6.05
2023-05-17T05:26:58.912Z,5.93
2023-05-17T05:29:56.263Z,6.15
2023-05-17T05:32:55.522Z,6.63
2023-05-17T05:35:52.647Z,6.68
2023-05-17T05:38:49.561Z,6.65
2023-05-17T05:41:47.402Z,6.94
2023-05-17T05:44:44.320Z,7.45
2023-05-17T05:47:43.602Z,7.27
2023-05-17T05:50:44.401Z,7.48
2023-05-17T05:53:47.857Z,8.07
2023-05-17T05:56:44.733Z,7.71
2023-05-17T05:59:41.597Z,8.12
2023-05-17T06:02:38.543Z,8.45
2023-05-17T06:05:35.701Z,8.50
2023-05-17T06:08:32.682Z,8.52
2023-05-17T06:11:29.595Z,8.77
2023-05-17T06:14:26.762Z,8.89
2023-05-17T06:17:23.822Z,8.64
2023-05-17T06:20:20.735Z,8.61
2023-05-17T06:23:17.608Z,8.96
2023-05-17T06:26:14.514Z,8.94
2023-05-17T06:29:11.388Z,9.05
2023-05-17T06:32:08.249Z,9.31
2023-05-17T06:35:05.738Z,9.33
2023-05-17T06:38:02.844Z,9.31
2023-05-17T06:40:59.784Z,9.00
2023-05-17T06:43:56.717Z,9.05
2023-05-17T06:46:53.719Z,9.25
2023-05-17T06:49:50.743Z,9.43
2023-05-17T06:52:47.616Z,9.39
2023-05-17T06:55:44.851Z,8.95
2023-05-17T06:58:44.999Z,9.12
2023-05-17T07:01:42.265Z,9.04
2023-05-17T07:04:39.368Z,9.57
2023-05-17T07:07:36.417Z,9.57
2023-05-17T07:10:33.287Z,9.32
2023-05-17T07:13:35.726Z,9.37
2023-05-17T07:16:32.881Z,9.41
2023-05-17T07:19:32.697Z,9.65
2023-05-17T07:22:29.866Z,9.22
2023-05-17T07:25:26.979Z,9.57
2023-05-17T07:28:24.181Z,10.03
2023-05-17T07:31:21.232Z,9.91
2023-05-17T07:34:18.117Z,9.86
2023-05-17T07:37:15.012Z,9.85
2023-05-17T07:40:12.444Z,10.12
2023-05-17T07:43:09.395Z,10.62
2023-05-17T07:46:06.357Z,9.56
2023-05-17T07:49:03.331Z,9.95
2023-05-17T07:52:00.333Z,10.27
2023-05-17T07:54:57.190Z,10.86
2023-05-17T07:57:56.186Z,10.80
2023-05-17T08:00:53.048Z,10.56
2023-05-17T08:03:50.196Z,10.09
2023-05-17T08:06:48.342Z,10.44
2023-05-17T08:09:45.483Z,10.50
2023-05-17T08:12:42.726Z,11.13
2023-05-17T08:15:39.676Z,10.82
2023-05-17T08:18:37.588Z,10.92
2023-05-17T08:21:35.296Z,11.05
2023-05-17T08:24:32.154Z,10.82
2023-05-17T08:27:31.058Z,11.23
2023-05-17T08:30:29.480Z,11.44
2023-05-17T08:33:27.516Z,12.14
2023-05-17T08:36:24.714Z,11.48
2023-05-17T08:39:21.877Z,11.26
2023-05-17T08:42:25.174Z,10.95
2023-05-17T08:45:22.245Z,10.97
2023-05-17T08:48:22.973Z,11.05
2023-05-17T08:51:20.826Z,11.02
2023-05-17T08:54:17.747Z,11.32
2023-05-17T08:57:18.099Z,11.15
2023-05-17T09:00:19.907Z,11.64
2023-05-17T09:03:19.681Z,11.31
2023-05-17T09:06:25.675Z,11.47
2023-05-17T09:09:23.565Z,11.93
2023-05-17T09:12:25.558Z,11.73
2023-05-17T09:15:24.193Z,11.68
2023-05-17T09:18:32.563Z,11.76
2023-05-17T09:21:33.938Z,12.92
2023-05-17T09:24:31.589Z,12.49
2023-05-17T09:27:32.386Z,12.19
2023-05-17T09:30:30.762Z,12.08
2023-05-17T09:33:27.943Z,12.29
2023-05-17T09:36:24.859Z,11.77
2023-05-17T09:39:22.346Z,11.54
2023-05-17T09:42:19.226Z,11.26
2023-05-17T09:45:25.543Z,11.64
2023-05-17T09:48:22.676Z,11.71
2023-05-17T09:51:19.629Z,12.05
2023-05-17T09:54:17.914Z,11.92
2023-05-17T09:57:14.888Z,12.23
2023-05-17T10:00:13.372Z,12.61
2023-05-17T10:03:13.247Z,13.37
2023-05-17T10:06:19.678Z,12.31
2023-05-17T10:09:26.758Z,12.01
2023-05-17T10:12:25.795Z,12.20
2023-05-17T10:15:23.950Z,12.80
2023-05-17T10:18:22.216Z,13.43
2023-05-17T10:21:19.821Z,14.27
2023-05-17T10:24:16.844Z,13.19
2023-05-17T10:27:14.833Z,12.19
2023-05-17T10:30:14.598Z,12.08
2023-05-17T10:33:16.215Z,12.76
2023-05-17T10:36:18.001Z,12.74
2023-05-17T10:39:15.291Z,14.05
2023-05-17T10:42:15.795Z,13.23
2023-05-17T10:45:13.384Z,13.34
2023-05-17T10:48:11.530Z,14.18
2023-05-17T10:51:09.810Z,15.70
2023-05-17T10:54:13.057Z,15.98
2023-05-17T11:00:56.258Z,14.14
2023-05-17T11:03:55.697Z,13.91
2023-05-17T11:07:12.723Z,12.87
2023-05-17T11:10:14.088Z,12.88
2023-05-17T11:13:25.701Z,15.57
2023-05-17T11:16:34.364Z,16.99
2023-05-17T11:19:31.272Z,15.05
2023-05-17T11:22:37.256Z,15.17
2023-05-17T11:25:38.016Z,15.37
2023-05-17T11:28:35.632Z,17.30
2023-05-17T11:31:36.479Z,18.47
2023-05-17T11:34:34.276Z,17.38
2023-05-17T11:37:31.427Z,15.44
2023-05-17T11:40:28.838Z,16.63
2023-05-17T11:43:30.876Z,16.44
2023-05-17T11:46:28.247Z,17.84
2023-05-17T11:49:34.905Z,16.75
2023-05-17T11:52:34.235Z,15.15
2023-05-17T11:55:31.393Z,16.89
2023-05-17T11:58:29.036Z,18.25
2023-05-17T12:01:25.911Z,17.93
2023-05-17T12:04:27.798Z,18.77
2023-05-17T12:07:25.958Z,17.28
2023-05-17T12:10:23.161Z,17.13
2023-05-17T12:13:21.452Z,19.76
2023-05-17T12:16:22.296Z,16.05
2023-05-17T12:19:22.479Z,17.74
2023-05-17T12:22:19.521Z,19.15
2023-05-17T12:25:25.783Z,19.38
2023-05-17T12:28:24.515Z,20.09
2023-05-17T12:31:35.042Z,18.67
2023-05-17T12:34:32.405Z,16.46
2023-05-17T12:37:29.313Z,18.34
2023-05-17T12:40:26.435Z,20.36
2023-05-17T12:43:26.808Z,19.00
2023-05-17T12:46:24.255Z,20.23
2023-05-17T12:49:21.823Z,20.10
2023-05-17T12:52:18.744Z,21.11
2023-05-17T12:55:15.621Z,19.79
2023-05-17T12:58:12.522Z,19.66
2023-05-17T13:01:14.304Z,21.98
2023-05-17T13:04:12.632Z,19.69
2023-05-17T13:07:09.549Z,19.38
2023-05-17T13:10:20.031Z,19.27
2023-05-17T13:13:21.176Z,19.92
2023-05-17T13:16:18.175Z,19.29
2023-05-17T13:19:15.434Z,19.12
2023-05-17T13:22:12.638Z,19.66
2023-05-17T13:25:09.659Z,20.16
2023-05-17T13:28:06.524Z,19.71
2023-05-17T13:31:03.448Z,19.47
2023-05-17T13:34:00.427Z,19.96
2023-05-17T13:36:57.775Z,19.91
2023-05-17T13:39:56.116Z,19.44
2023-05-17T13:42:53.248Z,19.01
2023-05-17T13:45:54.474Z,19.31
2023-05-17T13:48:51.590Z,19.68
2023-05-17T13:51:48.566Z,19.05
2023-05-17T13:54:45.412Z,18.72
2023-05-17T13:57:42.384Z,19.59
2023-05-17T14:00:42.645Z,20.08
2023-05-17T14:03:39.598Z,22.01
2023-05-17T14:06:36.469Z,20.94
2023-05-17T14:09:34.574Z,20.93
2023-05-17T14:12:31.517Z,19.35
2023-05-17T14:15:28.638Z,20.09
2023-05-17T14:18:25.746Z,18.63
2023-05-17T14:21:22.724Z,20.34
2023-05-17T14:24:19.646Z,19.90
2023-05-17T14:27:16.836Z,20.02
2023-05-17T14:30:14.797Z,19.56
2023-05-17T14:33:11.941Z,19.68
2023-05-17T14:36:09.007Z,22.57
2023-05-17T14:39:05.930Z,22.61
2023-05-17T14:42:02.811Z,21.05
2023-05-17T14:44:59.860Z,19.84
2023-05-17T14:47:56.883Z,19.86
2023-05-17T14:50:53.873Z,19.69
2023-05-17T14:53:51.455Z,17.55
2023-05-17T14:56:49.039Z,20.94
2023-05-17T14:59:45.916Z,20.00
2023-05-17T15:02:42.927Z,18.18
2023-05-17T15:05:40.274Z,21.00
2023-05-17T15:08:39.098Z,21.23
2023-05-17T15:11:36.064Z,18.02
2023-05-17T15:14:32.948Z,18.98
2023-05-17T15:17:29.833Z,19.00
2023-05-17T15:20:27.303Z,21.06
2023-05-17T15:23:24.239Z,20.83
2023-05-17T15:26:22.071Z,19.48
2023-05-17T15:29:18.949Z,18.74
2023-05-17T15:32:15.891Z,20.96
2023-05-17T15:35:12.828Z,19.06
2023-05-17T15:38:09.698Z,17.70
2023-05-17T15:41:10.728Z,19.22
2023-05-17T15:44:09.024Z,17.94
2023-05-17T15:47:05.884Z,18.04
2023-05-17T15:50:03.323Z,18.93
2023-05-17T15:53:02.413Z,16.62
2023-05-17T15:55:59.467Z,17.02
2023-05-17T15:58:56.348Z,16.10
2023-05-17T16:01:53.210Z,15.63
2023-05-17T16:04:50.270Z,15.42
2023-05-17T16:07:47.125Z,15.38
2023-05-17T16:10:44.552Z,16.03
2023-05-17T16:13:41.651Z,16.70
2023-05-17T16:16:38.519Z,16.39
2023-05-17T16:19:35.588Z,16.38
2023-05-17T16:22:33.263Z,16.91
2023-05-17T16:25:30.414Z,16.67
2023-05-17T16:28:27.532Z,18.36
2023-05-17T16:31:24.893Z,17.57
2023-05-17T16:34:21.897Z,17.10
2023-05-17T16:37:18.805Z,15.47
2023-05-17T16:40:16.668Z,15.44
2023-05-17T16:43:16.033Z,15.20
2023-05-17T16:46:12.938Z,15.35
2023-05-17T16:49:09.837Z,14.92
2023-05-17T16:52:07.802Z,14.75
2023-05-17T16:55:05.414Z,15.47
2023-05-17T16:58:05.985Z,16.58
2023-05-17T17:01:03.255Z,17.34
2023-05-17T17:04:00.622Z,16.83
2023-05-17T17:06:58.419Z,17.34
2023-05-17T17:09:55.279Z,16.20
2023-05-17T17:12:52.163Z,17.06
2023-05-17T17:15:51.027Z,15.73
2023-05-17T17:18:49.580Z,14.73
2023-05-17T17:21:46.643Z,14.43
2023-05-17T17:24:44.462Z,14.51
2023-05-17T17:27:42.085Z,14.88
2023-05-17T17:30:38.964Z,14.05
2023-05-17T17:33:36.200Z,13.80
2023-05-17T17:36:33.303Z,14.06
2023-05-17T17:39:30.339Z,13.77
2023-05-17T17:42:27.518Z,13.55
2023-05-17T17:45:24.423Z,13.52
2023-05-17T17:48:21.294Z,13.73
2023-05-17T17:51:18.153Z,13.55
2023-05-17T17:54:14.985Z,13.55
2023-05-17T17:57:11.838Z,13.37
2023-05-17T18:00:11.950Z,12.81
2023-05-17T18:03:09.088Z,13.41
2023-05-17T18:06:06.229Z,12.90
2023-05-17T18:09:03.161Z,12.63
2023-05-17T18:12:00.154Z,12.65
2023-05-17T18:14:57.100Z,12.89
2023-05-17T18:17:54.787Z,12.45
2023-05-17T18:20:51.861Z,12.31
2023-05-17T18:23:48.723Z,11.92
2023-05-17T18:26:45.568Z,11.63
2023-05-17T18:29:45.793Z,11.22
2023-05-17T18:32:42.777Z,11.53
2023-05-17T18:35:39.737Z,11.38
2023-05-17T18:38:36.708Z,11.35
2023-05-17T18:41:35.737Z,11.26
2023-05-17T18:44:32.669Z,11.07
2023-05-17T18:47:29.633Z,10.96
2023-05-17T18:50:26.629Z,10.90
2023-05-17T18:53:23.833Z,10.70
2023-05-17T18:56:23.222Z,10.51
2023-05-17T18:59:20.248Z,10.71
2023-05-17T19:02:17.248Z,10.44
2023-05-17T19:05:14.465Z,10.36
2023-05-17T19:08:11.460Z,9.49
2023-05-17T19:11:08.354Z,9.77
2023-05-17T19:14:05.781Z,9.81
2023-05-17T19:17:02.695Z,9.46
2023-05-17T19:19:59.572Z,9.63
2023-05-17T19:22:56.505Z,9.41
2023-05-17T19:25:54.941Z,9.42
2023-05-17T19:28:52.238Z,9.24
2023-05-17T19:31:49.350Z,8.92
2023-05-17T19:34:46.434Z,9.39
2023-05-17T19:37:43.315Z,9.05
2023-05-17T19:40:40.882Z,8.76
2023-05-17T19:43:38.126Z,8.62
2023-05-17T19:46:35.052Z,8.72
2023-05-17T19:49:32.404Z,8.81
2023-05-17T19:52:29.256Z,8.81
2023-05-17T19:55:29.873Z,9.12
2023-05-17T19:58:28.011Z,8.71
2023-05-17T20:01:24.917Z,8.63
2023-05-17T20:04:21.827Z,8.87
2023-05-17T20:07:20.399Z,9.16
2023-05-17T20:10:17.253Z,9.42
2023-05-17T20:13:14.407Z,8.52
2023-05-17T20:16:13.899Z,8.59
2023-05-17T20:19:10.909Z,8.76
2023-05-17T20:22:07.917Z,8.61
2023-05-17T20:25:05.222Z,8.40
2023-05-17T20:28:02.271Z,8.31
2023-05-17T20:30:59.162Z,8.69
2023-05-17T20:33:56.146Z,8.28
2023-05-17T20:36:53.007Z,8.48
2023-05-17T20:39:49.898Z,8.26
2023-05-17T20:42:48.084Z,8.11
2023-05-17T20:45:45.907Z,8.05
2023-05-17T20:48:43.352Z,7.60
2023-05-17T20:51:40.571Z,7.66
2023-05-17T20:54:37.469Z,7.84
2023-05-17T20:57:34.386Z,7.58
2023-05-17T21:00:31.590Z,7.28
2023-05-17T21:03:33.282Z,7.55
2023-05-17T21:06:32.547Z,7.23
2023-05-17T21:09:29.740Z,7.57
2023-05-17T21:12:26.584Z,7.20
2023-05-17T21:15:24.167Z,7.21
2023-05-17T21:18:21.233Z,7.24
2023-05-17T21:21:18.402Z,6.77
2023-05-17T21:24:15.506Z,6.60
2023-05-17T21:27:12.379Z,6.44
2023-05-17T21:30:09.780Z,6.44
2023-05-17T21:33:06.660Z,6.64
2023-05-17T21:36:03.778Z,6.75
2023-05-17T21:39:00.653Z,6.15
2023-05-17T21:41:57.557Z,6.11
2023-05-17T21:44:54.419Z,6.83
2023-05-17T21:47:51.317Z,6.98
2023-05-17T21:50:49.766Z,7.31
2023-05-17T21:53:46.638Z,8.07
2023-05-17T21:56:43.511Z,7.54
2023-05-17T21:59:40.354Z,7.46
2023-05-17T22:02:37.316Z,7.30
2023-05-17T22:05:34.244Z,7.28
2023-05-17T22:08:32.090Z,6.49
2023-05-17T22:11:29.116Z,6.66
2023-05-17T22:14:32.957Z,6.62
2023-05-17T22:17:42.648Z,6.44
2023-05-17T22:20:44.395Z,6.25
2023-05-17T22:23:42.178Z,6.17
2023-05-17T22:26:39.075Z,6.17
2023-05-17T22:29:38.417Z,6.45
2023-05-17T22:32:37.309Z,6.36
2023-05-17T22:35:34.231Z,6.31
2023-05-17T22:38:31.087Z,6.43
2023-05-17T22:41:28.075Z,6.35
2023-05-17T22:44:24.968Z,6.48
2023-05-17T22:47:23.277Z,6.23
2023-05-17T22:50:20.281Z,5.80
2023-05-17T22:53:18.478Z,5.84
2023-05-17T22:56:15.568Z,5.99
2023-05-17T22:59:12.536Z,5.87
2023-05-17T23:02:11.206Z,5.90
2023-05-17T23:05:08.642Z,5.88
2023-05-17T23:08:07.899Z,5.60
2023-05-17T23:11:04.917Z,5.54
2023-05-17T23:14:02.046Z,5.38
2023-05-17T23:17:02.178Z,5.47
2023-05-17T23:20:12.883Z,5.33
2023-05-17T23:23:09.828Z,5.30
2023-05-17T23:26:06.694Z,5.32
2023-05-17T23:29:03.573Z,5.30
2023-05-17T23:32:00.675Z,5.31
2023-05-17T23:34:58.559Z,5.58
2023-05-17T23:37:55.418Z,5.46
2023-05-17T23:40:52.710Z,5.37
2023-05-17T23:43:49.937Z,5.34
2023-05-17T23:46:47.052Z,5.24
2023-05-17T23:49:43.936Z,5.14
2023-05-17T23:52:40.803Z,4.97
2023-05-17T23:55:38.468Z,5.19
2023-05-17T23:58:35.407Z,5.32
